Time;durP1;ratioP1;P1;durP2;ratioP2;P2;SDS_P1;SDS_P2;PMS_P1;PMS_P2;Temp;Humidity;BMP_temperature;BMP_pressure;BME280_temperature;BME280_humidity;BME280_pressure;Samples;Min_cycle;Max_cycle;Signal;HPM_P1;HPM_P2
2022/08/23 00:02:00;;;;;;;9.98;3.63;;;;;;;21.36;92.12;101364.41;4905102;29;20052;-61
2022/08/23 00:04:35;;;;;;;8.25;3.72;;;;;;;21.30;92.47;101360.72;4908967;29;20051;-60
2022/08/23 00:07:03;;;;;;;9.45;3.85;;;;;;;21.27;92.29;101355.81;4909347;29;20052;-61
2022/08/23 00:09:30;;;;;;;8.23;3.83;;;;;;;21.19;92.46;101348.81;4903734;29;20679;-60
2022/08/23 00:12:26;;;;;;;8.63;3.53;;;;;;;21.16;94.18;101351.88;4894072;29;20059;-61
2022/08/23 00:14:54;;;;;;;9.88;4.75;;;;;;;21.09;93.80;101345.69;4895324;29;20052;-61
2022/08/23 00:17:20;;;;;;;10.90;4.20;;;;;;;21.02;95.23;101353.72;4902158;29;20134;-61
2022/08/23 00:20:03;;;;;;;7.53;4.10;;;;;;;20.98;95.38;101355.13;4908188;29;20052;-62
2022/08/23 00:22:29;;;;;;;8.73;3.88;;;;;;;20.92;96.08;101348.75;4903360;29;20048;-61
2022/08/23 00:24:55;;;;;;;8.27;4.25;;;;;;;20.90;96.20;101348.16;4906347;29;20048;-60
2022/08/23 00:27:22;;;;;;;9.32;4.70;;;;;;;20.85;97.00;101353.25;4901761;29;20433;-61
2022/08/23 00:29:51;;;;;;;8.68;4.40;;;;;;;20.86;97.86;101352.25;4903882;29;20498;-60
2022/08/23 00:32:24;;;;;;;10.32;4.32;;;;;;;20.83;98.32;101347.31;4909603;29;20074;-60
2022/08/23 00:34:51;;;;;;;7.60;4.05;;;;;;;20.75;98.26;101350.16;4900353;29;20048;-61
2022/08/23 00:37:19;;;;;;;7.18;3.97;;;;;;;20.71;97.87;101348.91;4908178;29;20056;-60
2022/08/23 00:39:46;;;;;;;9.52;4.75;;;;;;;20.67;97.37;101345.00;4895469;29;20050;-60
2022/08/23 00:48:11;;;;;;;9.60;4.28;;;;;;;20.59;100.00;101347.81;4902829;29;20048;-60
2022/08/23 00:50:51;;;;;;;7.50;4.68;;;;;;;20.54;99.34;101351.06;4900279;29;20052;-60
2022/08/23 00:53:26;;;;;;;9.80;4.63;;;;;;;20.57;99.65;101348.03;4899950;29;20052;-62
2022/08/23 00:55:56;;;;;;;8.95;4.90;;;;;;;20.53;100.00;101341.44;4901914;29;20052;-61
2022/08/23 00:58:23;;;;;;;8.88;4.82;;;;;;;20.49;100.00;101349.03;4898719;29;20048;-62
2022/08/23 01:00:54;;;;;;;9.13;4.68;;;;;;;20.46;100.00;101341.41;4909289;29;20056;-60
2022/08/23 01:03:23;;;;;;;8.25;4.65;;;;;;;20.42;100.00;101345.50;4901548;28;20063;-62
2022/08/23 01:06:12;;;;;;;10.10;4.68;;;;;;;20.39;100.00;101350.41;4905231;29;20055;-61
2022/08/23 01:08:44;;;;;;;8.32;4.53;;;;;;;20.42;100.00;101350.81;4892063;29;20502;-61
2022/08/23 01:11:19;;;;;;;10.93;4.43;;;;;;;20.40;100.00;101349.38;4906853;29;20082;-62
2022/08/23 01:14:10;;;;;;;10.00;4.55;;;;;;;20.40;100.00;101350.19;4893282;29;20056;-60
2022/08/23 01:16:52;;;;;;;9.35;4.43;;;;;;;20.40;100.00;101355.53;4908206;29;20056;-61
2022/08/23 01:19:31;;;;;;;7.10;4.18;;;;;;;20.38;100.00;101356.75;4899318;29;20509;-61
2022/08/23 01:22:33;;;;;;;10.88;4.68;;;;;;;20.35;100.00;101353.47;4887293;29;20064;-59
2022/08/23 01:25:03;;;;;;;8.20;4.18;;;;;;;20.31;100.00;101360.22;4901784;29;20695;-60
2022/08/23 01:27:34;;;;;;;7.93;4.30;;;;;;;20.22;100.00;101358.72;4897298;29;20095;-63
2022/08/23 01:30:03;;;;;;;8.73;4.32;;;;;;;20.16;100.00;101356.84;4907803;29;20067;-60
2022/08/23 01:32:31;;;;;;;9.18;3.67;;;;;;;20.14;100.00;101351.72;4900871;29;20060;-61
2022/08/23 01:34:58;;;;;;;7.40;4.55;;;;;;;20.13;100.00;101350.09;4904768;29;20161;-62
2022/08/23 01:37:24;;;;;;;11.65;4.80;;;;;;;20.09;100.00;101351.50;4896438;29;20063;-61
2022/08/23 01:39:51;;;;;;;6.95;4.25;;;;;;;20.06;100.00;101351.88;4904967;29;20052;-62
2022/08/23 01:42:18;;;;;;;10.43;4.63;;;;;;;20.03;100.00;101348.78;4901412;29;20115;-61
2022/08/23 01:44:44;;;;;;;11.43;4.45;;;;;;;20.00;100.00;101349.19;4901466;29;20045;-61
2022/08/23 01:47:10;;;;;;;8.50;4.32;;;;;;;19.97;100.00;101353.06;4908220;29;20050;-61
2022/08/23 01:49:37;;;;;;;10.60;4.40;;;;;;;19.98;100.00;101354.72;4896297;29;20056;-61
2022/08/23 01:52:03;;;;;;;9.00;4.90;;;;;;;19.96;100.00;101351.44;4903587;29;20052;-62
2022/08/23 01:54:30;;;;;;;7.93;4.55;;;;;;;19.94;100.00;101353.47;4895319;29;20048;-61
2022/08/23 01:56:56;;;;;;;8.70;4.38;;;;;;;19.92;100.00;101347.50;4897067;29;20056;-61
2022/08/23 01:59:23;;;;;;;9.82;4.75;;;;;;;19.89;100.00;101351.38;4901100;29;20056;-57
2022/08/23 02:01:51;;;;;;;7.43;4.70;;;;;;;19.90;100.00;101355.69;4907030;29;20052;-62
2022/08/23 02:04:18;;;;;;;12.63;5.07;;;;;;;19.88;100.00;101359.56;4902207;29;20056;-61
2022/08/23 02:06:44;;;;;;;11.40;4.97;;;;;;;19.87;100.00;101363.22;4901612;29;20052;-61
2022/08/23 02:09:11;;;;;;;9.02;4.45;;;;;;;19.87;100.00;101355.25;4891552;29;20090;-58
2022/08/23 02:11:43;;;;;;;8.98;4.90;;;;;;;19.85;100.00;101352.78;4900784;29;20048;-61
2022/08/23 02:14:17;;;;;;;9.10;4.93;;;;;;;19.86;100.00;101349.09;4903120;29;20512;-61
2022/08/23 02:16:47;;;;;;;8.38;5.18;;;;;;;19.85;100.00;101351.97;4897022;29;20048;-61
2022/08/23 02:19:31;;;;;;;7.78;4.80;;;;;;;19.80;100.00;101351.72;4897693;29;20060;-61
2022/08/23 02:21:58;;;;;;;8.25;4.40;;;;;;;19.75;100.00;101354.97;4891780;29;20056;-60
2022/08/23 02:24:25;;;;;;;6.90;4.57;;;;;;;19.71;100.00;101351.84;4904655;29;20474;-62
2022/08/23 02:26:55;;;;;;;10.07;5.05;;;;;;;19.70;100.00;101349.38;4905876;29;20514;-61
2022/08/23 02:29:24;;;;;;;10.25;4.80;;;;;;;19.68;100.00;101349.56;4899111;29;20052;-61
2022/08/23 02:31:51;;;;;;;8.65;4.95;;;;;;;19.60;100.00;101344.41;4902040;29;20126;-62
2022/08/23 02:34:19;;;;;;;12.40;4.90;;;;;;;19.59;100.00;101352.56;4900321;29;20056;-62
2022/08/23 02:36:46;;;;;;;7.63;4.50;;;;;;;19.53;100.00;101347.00;4907282;29;20071;-62
2022/08/23 02:39:14;;;;;;;15.05;5.28;;;;;;;19.54;100.00;101353.97;4899310;29;20493;-60
2022/08/23 02:41:40;;;;;;;12.68;5.25;;;;;;;19.48;100.00;101354.75;4897467;29;20059;-62
2022/08/23 02:44:07;;;;;;;8.68;5.47;;;;;;;19.47;100.00;101352.28;4902944;29;20067;-59
2022/08/23 02:46:35;;;;;;;10.00;5.10;;;;;;;19.45;100.00;101352.47;4892602;29;20056;-62
2022/08/23 02:49:02;;;;;;;6.63;4.82;;;;;;;19.44;100.00;101352.66;4902677;29;20056;-55
2022/08/23 02:51:29;;;;;;;5.88;4.85;;;;;;;19.38;100.00;101354.22;4896988;29;20082;-60
2022/08/23 02:53:55;;;;;;;10.45;5.28;;;;;;;19.39;100.00;101349.75;4903685;29;20409;-61
2022/08/23 02:56:22;;;;;;;8.52;5.32;;;;;;;19.35;100.00;101351.97;4898594;29;20588;-61
2022/08/23 02:58:49;;;;;;;9.27;5.20;;;;;;;19.32;100.00;101352.34;4904280;29;20051;-62
2022/08/23 03:01:24;;;;;;;13.15;5.63;;;;;;;19.25;100.00;101346.97;4907928;29;20110;-61
2022/08/23 03:03:51;;;;;;;11.02;5.70;;;;;;;19.14;100.00;101347.47;4903716;29;20446;-62
2022/08/23 03:06:18;;;;;;;7.95;5.82;;;;;;;19.08;100.00;101350.91;4906263;29;20049;-61
2022/08/23 03:08:50;;;;;;;9.38;5.95;;;;;;;19.04;100.00;101350.44;4895555;29;20457;-61
2022/08/23 03:11:22;;;;;;;10.48;5.75;;;;;;;19.03;100.00;101348.78;4907569;29;20067;-61
2022/08/23 03:13:49;;;;;;;9.73;5.75;;;;;;;18.99;100.00;101354.69;4900211;29;20417;-61
2022/08/23 03:16:17;;;;;;;9.40;6.10;;;;;;;18.94;100.00;101355.25;4911106;29;20052;-61
2022/08/23 03:18:44;;;;;;;10.43;6.50;;;;;;;18.91;100.00;101350.31;4909316;29;20048;-62
2022/08/23 03:21:11;;;;;;;11.07;7.10;;;;;;;18.89;100.00;101352.34;4896170;29;20561;-61
2022/08/23 03:23:38;;;;;;;10.95;6.22;;;;;;;18.88;100.00;101358.69;4910253;29;20494;-62
2022/08/23 03:26:07;;;;;;;8.50;5.90;;;;;;;18.86;100.00;101358.03;4898963;29;20067;-65
2022/08/23 03:28:35;;;;;;;9.18;6.15;;;;;;;18.83;100.00;101361.06;4904977;29;20062;-62
2022/08/23 03:31:01;;;;;;;9.45;6.15;;;;;;;18.76;100.00;101360.97;4905206;29;20552;-62
2022/08/23 03:33:28;;;;;;;8.15;6.40;;;;;;;18.72;100.00;101367.66;4910657;29;20052;-61
2022/08/23 03:36:02;;;;;;;8.57;6.10;;;;;;;18.72;100.00;101357.03;4903235;28;20567;-61
2022/08/23 03:41:04;;;;;;;8.23;5.93;;;;;;;18.61;100.00;101362.84;4897274;23;20126;-61
2022/08/23 03:43:32;;;;;;;11.40;6.20;;;;;;;18.57;100.00;101367.69;4902839;29;20432;-58
2022/08/23 03:45:59;;;;;;;10.82;6.15;;;;;;;18.57;100.00;101367.69;4905855;29;20044;-62
2022/08/23 03:48:26;;;;;;;8.32;5.43;;;;;;;18.57;100.00;101357.88;4903853;29;20111;-62
2022/08/23 03:50:52;;;;;;;8.07;5.93;;;;;;;18.56;100.00;101366.88;4902808;29;20044;-61
2022/08/23 03:53:22;;;;;;;8.52;5.57;;;;;;;18.58;100.00;101374.63;4896230;29;20052;-61
2022/08/23 03:55:51;;;;;;;10.30;5.55;;;;;;;18.56;100.00;101377.50;4898248;29;20075;-61
2022/08/23 03:58:19;;;;;;;11.10;6.45;;;;;;;18.57;100.00;101375.66;4904989;29;20064;-61
2022/08/23 04:00:46;;;;;;;9.23;5.63;;;;;;;18.58;100.00;101377.28;4891415;29;20443;-61
2022/08/23 04:03:12;;;;;;;10.52;6.10;;;;;;;18.52;100.00;101380.69;4905682;29;20059;-62
2022/08/23 04:05:39;;;;;;;10.85;5.45;;;;;;;18.54;100.00;101389.28;4904143;29;20519;-61
2022/08/23 04:08:09;;;;;;;10.85;5.93;;;;;;;18.58;100.00;101386.09;4905856;29;20065;-60
2022/08/23 04:10:37;;;;;;;8.57;5.60;;;;;;;18.55;100.00;101385.66;4899609;29;20086;-62
2022/08/23 04:13:06;;;;;;;9.63;5.82;;;;;;;18.58;100.00;101385.25;4909440;29;20062;-57
2022/08/23 04:15:32;;;;;;;7.95;6.00;;;;;;;18.54;100.00;101394.59;4907566;29;20084;-56
2022/08/23 04:17:58;;;;;;;8.50;5.32;;;;;;;18.48;100.00;101392.69;4900157;29;20066;-62
2022/08/23 04:20:25;;;;;;;9.48;5.72;;;;;;;18.41;100.00;101392.63;4907559;29;20063;-62
2022/08/23 04:22:54;;;;;;;10.68;6.30;;;;;;;18.44;100.00;101394.06;4897447;29;20122;-62
2022/08/23 04:25:21;;;;;;;8.50;5.68;;;;;;;18.39;100.00;101394.66;4909469;29;20143;-61
2022/08/23 04:28:01;;;;;;;7.78;6.28;;;;;;;18.30;100.00;101385.94;4902520;29;20738;-60
2022/08/23 04:30:27;;;;;;;8.43;6.70;;;;;;;18.28;100.00;101385.28;4897595;29;20059;-62
2022/08/23 04:32:54;;;;;;;7.82;5.80;;;;;;;18.27;100.00;101388.13;4904872;29;20053;-62
2022/08/23 04:35:21;;;;;;;9.98;6.32;;;;;;;18.30;100.00;101399.22;4901017;29;20419;-61
2022/08/23 04:37:47;;;;;;;8.10;6.13;;;;;;;18.25;100.00;101398.94;4902273;29;20044;-61
2022/08/23 04:42:59;;;;;;;12.60;7.00;;;;;;;18.25;100.00;101401.59;4903835;29;20405;-61
2022/08/23 04:45:27;;;;;;;11.90;6.60;;;;;;;18.27;100.00;101419.97;4900496;29;20500;-62
2022/08/23 04:47:54;;;;;;;10.65;6.97;;;;;;;18.31;100.00;101419.47;4904439;29;20051;-61
2022/08/23 04:50:21;;;;;;;12.05;5.80;;;;;;;18.35;100.00;101426.06;4892969;29;20052;-60
2022/08/23 04:52:47;;;;;;;10.15;6.60;;;;;;;18.34;100.00;101440.31;4906325;29;20266;-61
2022/08/23 04:55:14;;;;;;;11.23;6.90;;;;;;;18.36;100.00;101430.34;4910219;29;20074;-61
2022/08/23 04:57:41;;;;;;;12.18;6.80;;;;;;;18.38;100.00;101438.97;4900826;29;20044;-61
2022/08/23 05:00:11;;;;;;;9.35;6.53;;;;;;;18.41;100.00;101432.47;4907620;29;20057;-62
2022/08/23 05:02:38;;;;;;;11.73;6.35;;;;;;;18.43;100.00;101432.28;4892115;29;20053;-63
2022/08/23 05:05:06;;;;;;;11.07;6.32;;;;;;;18.50;100.00;101435.84;4909556;29;20609;-62
2022/08/23 05:07:33;;;;;;;10.68;6.97;;;;;;;18.47;100.00;101429.06;4906643;29;20428;-62
2022/08/23 05:10:11;;;;;;;12.18;6.72;;;;;;;18.44;100.00;101437.41;4910642;29;20055;-62
2022/08/23 05:12:38;;;;;;;13.25;6.50;;;;;;;18.44;100.00;101434.75;4912260;29;20056;-61
2022/08/23 05:15:05;;;;;;;11.25;7.13;;;;;;;18.46;100.00;101434.56;4892453;29;20055;-61
2022/08/23 05:17:31;;;;;;;11.27;7.00;;;;;;;18.41;100.00;101440.44;4900176;29;20052;-61
2022/08/23 05:19:58;;;;;;;11.43;6.65;;;;;;;18.41;100.00;101435.13;4894146;29;20058;-60
2022/08/23 05:22:24;;;;;;;10.10;6.95;;;;;;;18.39;100.00;101442.44;4915319;29;20489;-60
2022/08/23 05:24:50;;;;;;;13.25;7.85;;;;;;;18.44;100.00;101447.19;4901856;29;20051;-61
2022/08/23 05:27:17;;;;;;;15.02;7.25;;;;;;;18.46;100.00;101443.34;4909802;29;20167;-61
2022/08/23 05:29:44;;;;;;;15.35;7.25;;;;;;;18.49;100.00;101443.00;4910919;29;20048;-62
2022/08/23 05:32:10;;;;;;;10.23;7.28;;;;;;;18.52;100.00;101447.94;4897248;29;20071;-63
2022/08/23 05:34:37;;;;;;;12.60;7.57;;;;;;;18.56;100.00;101443.91;4908063;29;20415;-62
2022/08/23 05:37:03;;;;;;;10.43;7.50;;;;;;;18.63;100.00;101457.28;4896563;29;20062;-62
2022/08/23 05:39:30;;;;;;;14.27;6.90;;;;;;;18.69;100.00;101461.03;4909081;29;20060;-61
2022/08/23 05:42:04;;;;;;;9.98;7.55;;;;;;;18.77;100.00;101460.94;4901045;29;20135;-61
2022/08/23 05:44:30;;;;;;;10.18;7.95;;;;;;;18.80;100.00;101460.59;4899121;29;20059;-61
2022/08/23 05:47:04;;;;;;;12.23;7.78;;;;;;;18.88;100.00;101465.81;4905681;29;20048;-61
2022/08/23 05:49:36;;;;;;;13.05;7.78;;;;;;;18.89;100.00;101456.81;4896805;29;20067;-62
2022/08/23 05:52:04;;;;;;;11.93;7.90;;;;;;;18.96;100.00;101456.91;4903019;29;20056;-61
2022/08/23 05:54:31;;;;;;;;;;;;;;;19.01;100.00;101453.69;4898838;29;20056;-62
2022/08/23 05:56:57;;;;;;;10.13;7.63;;;;;;;18.98;100.00;101452.22;4904494;29;19927;-61
2022/08/23 05:59:24;;;;;;;11.57;7.90;;;;;;;19.02;100.00;101448.19;4891186;29;21174;-62
2022/08/23 06:01:51;;;;;;;10.98;7.85;;;;;;;19.11;100.00;101451.53;4907044;29;20064;-61
2022/08/23 06:04:18;;;;;;;12.73;8.27;;;;;;;19.20;100.00;101450.44;4908730;29;20070;-62
2022/08/23 06:06:44;;;;;;;12.32;8.50;;;;;;;19.29;100.00;101454.63;4904021;29;20063;-61
2022/08/23 06:09:14;;;;;;;12.98;9.60;;;;;;;19.43;100.00;101463.56;4907330;29;20052;-60
2022/08/23 06:11:43;;;;;;;13.77;10.77;;;;;;;19.59;100.00;101464.34;4895563;29;20058;-61
2022/08/23 06:14:10;;;;;;;17.25;11.57;;;;;;;19.69;100.00;101467.50;4897806;29;20126;-61
2022/08/23 06:16:43;;;;;;;16.02;11.73;;;;;;;19.87;100.00;101470.53;4895208;29;20422;-57
2022/08/23 06:19:10;;;;;;;14.13;10.70;;;;;;;19.99;100.00;101464.69;4899766;29;20052;-60
2022/08/23 06:21:38;;;;;;;17.27;11.25;;;;;;;20.10;100.00;101472.16;4904673;29;20058;-61
2022/08/23 06:24:05;;;;;;;16.55;10.70;;;;;;;20.24;100.00;101470.41;4895651;29;20068;-62
2022/08/23 06:26:35;;;;;;;14.57;11.15;;;;;;;20.32;100.00;101480.91;4900148;29;20052;-62
2022/08/23 06:29:05;;;;;;;15.02;11.60;;;;;;;20.44;100.00;101475.88;4899251;29;20052;-61
2022/08/23 06:31:44;;;;;;;19.27;12.27;;;;;;;20.52;100.00;101483.69;4913396;29;20063;-61
2022/08/23 06:34:14;;;;;;;15.55;11.40;;;;;;;20.69;100.00;101477.06;4897602;29;20079;-62
2022/08/23 06:36:41;;;;;;;15.95;11.43;;;;;;;20.74;100.00;101477.31;4909735;29;20044;-61
2022/08/23 06:39:09;;;;;;;18.38;10.50;;;;;;;20.88;100.00;101480.84;4906237;29;20052;-61
2022/08/23 06:41:36;;;;;;;12.55;10.68;;;;;;;21.01;100.00;101476.56;4903398;29;20048;-62
2022/08/23 06:44:05;;;;;;;16.25;10.27;;;;;;;21.11;100.00;101472.53;4904997;29;20599;-61
2022/08/23 06:46:31;;;;;;;15.57;11.13;;;;;;;21.26;100.00;101468.88;4902297;29;20052;-61
2022/08/23 06:48:59;;;;;;;14.93;10.77;;;;;;;21.35;100.00;101469.53;4907623;29;20050;-60
2022/08/23 06:51:28;;;;;;;14.85;10.73;;;;;;;21.45;99.59;101468.13;4903759;29;20048;-62
2022/08/23 06:53:57;;;;;;;15.32;9.60;;;;;;;21.56;100.00;101474.72;4906722;29;20618;-62
2022/08/23 06:56:29;;;;;;;11.77;8.55;;;;;;;21.57;100.00;101467.53;4899268;29;20464;-61
2022/08/23 06:58:55;;;;;;;12.50;9.35;;;;;;;21.59;100.00;101468.97;4907000;29;20813;-60
2022/08/23 07:01:26;;;;;;;13.43;10.07;;;;;;;21.68;99.07;101465.06;4909293;29;20052;-62
2022/08/23 07:04:14;;;;;;;15.85;9.80;;;;;;;21.69;99.00;101464.03;4897271;29;20544;-61
2022/08/23 07:06:41;;;;;;;17.70;10.30;;;;;;;21.78;99.21;101470.00;4910500;29;20083;-61
2022/08/23 07:09:07;;;;;;;14.63;9.15;;;;;;;21.81;97.94;101469.59;4895332;29;20131;-62
2022/08/23 07:11:35;;;;;;;11.20;8.73;;;;;;;21.90;98.30;101467.53;4911593;29;20084;-59
2022/08/23 07:14:06;;;;;;;11.83;8.80;;;;;;;21.93;97.65;101467.13;4901312;29;20048;-61
2022/08/23 07:16:48;;;;;;;15.93;11.35;;;;;;;22.04;95.64;101471.84;4904862;29;20063;-62
2022/08/23 07:19:17;;;;;;;13.93;7.75;;;;;;;22.17;95.73;101473.69;4904768;29;20064;-63
2022/08/23 07:21:44;;;;;;;18.23;11.52;;;;;;;22.18;95.29;101469.16;4906143;29;20052;-61
2022/08/23 07:24:15;;;;;;;16.00;9.95;;;;;;;22.21;96.60;101469.56;4906471;29;20059;-61
2022/08/23 07:26:44;;;;;;;;;;;;;;;22.29;94.97;101473.91;4905741;29;20519;-61
2022/08/23 07:29:12;;;;;;;17.27;11.63;;;;;;;22.29;97.07;101471.25;4910610;29;19927;-62
2022/08/23 07:31:40;;;;;;;;;;;;;;;22.37;95.33;101486.22;4906840;29;20570;-59
2022/08/23 07:34:07;;;;;;;;;;;;;;;22.42;95.94;101481.88;4910829;29;20288;-60
2022/08/23 07:36:34;;;;;;;14.73;12.00;;;;;;;22.43;94.93;101486.22;4897933;29;20447;-62
2022/08/23 07:39:03;;;;;;;17.73;12.10;;;;;;;22.48;94.46;101490.91;4906115;29;20056;-62
2022/08/23 07:41:30;;;;;;;;;;;;;;;22.57;93.69;101486.19;4903525;29;20052;-61
2022/08/23 07:44:03;;;;;;;19.23;13.60;;;;;;;22.59;95.39;101484.94;4903315;29;20818;-62
2022/08/23 07:46:31;;;;;;;16.80;13.95;;;;;;;22.57;96.10;101487.00;4912876;29;20485;-61
2022/08/23 07:49:00;;;;;;;;;;;;;;;22.66;95.90;101492.94;4900796;29;20060;-62
2022/08/23 07:51:28;;;;;;;;;;;;;;;22.70;94.16;101489.63;4914033;29;19927;-61
2022/08/23 07:53:54;;;;;;;;;;;;;;;22.74;93.42;101502.56;4904052;29;19930;-61
2022/08/23 07:56:21;;;;;;;15.52;11.02;;;;;;;22.76;95.33;101500.50;4905116;29;20340;-63
2022/08/23 07:58:48;;;;;;;12.55;8.00;;;;;;;22.83;94.95;101493.28;4905842;29;20500;-63
2022/08/23 08:01:24;;;;;;;20.17;13.70;;;;;;;22.94;94.61;101499.84;4897631;29;20062;-61
2022/08/23 08:03:53;;;;;;;15.90;11.10;;;;;;;23.01;94.13;101511.31;4911670;29;20470;-62
2022/08/23 08:06:21;;;;;;;13.13;9.57;;;;;;;23.06;93.97;101511.53;4905831;29;20052;-63
2022/08/23 08:08:48;;;;;;;22.75;14.07;;;;;;;23.13;93.02;101509.66;4910745;29;20066;-62
2022/08/23 08:11:19;;;;;;;17.13;12.52;;;;;;;23.31;89.73;101506.28;4899342;29;20063;-62
2022/08/23 08:13:48;;;;;;;17.08;11.95;;;;;;;23.52;88.79;101506.97;4906380;29;20481;-62
2022/08/23 08:16:25;;;;;;;13.68;9.88;;;;;;;23.81;88.53;101505.56;4897838;29;20469;-62
2022/08/23 08:18:56;;;;;;;16.50;8.60;;;;;;;24.11;85.43;101502.22;4901062;29;20528;-62
2022/08/23 08:21:23;;;;;;;15.30;9.45;;;;;;;24.39;83.55;101505.25;4906720;29;20056;-62
2022/08/23 08:23:50;;;;;;;13.02;10.00;;;;;;;24.67;85.36;101510.13;4901944;29;20056;-62
2022/08/23 08:26:16;;;;;;;17.40;11.13;;;;;;;24.92;78.45;101517.28;4908148;29;20579;-61
2022/08/23 08:28:43;;;;;;;14.55;10.98;;;;;;;25.12;76.95;101508.16;4903274;29;20143;-60
2022/08/23 08:31:11;;;;;;;20.50;11.07;;;;;;;25.20;73.68;101511.34;4905274;29;21185;-60
2022/08/23 08:33:38;;;;;;;17.00;9.35;;;;;;;25.43;75.45;101520.56;4880862;29;20056;-61
2022/08/23 08:36:06;;;;;;;19.90;10.23;;;;;;;25.62;73.66;101516.78;4907931;29;20063;-60
2022/08/23 08:38:38;;;;;;;17.55;9.35;;;;;;;25.75;70.72;101515.75;4909799;29;20501;-61
2022/08/23 08:41:24;;;;;;;16.15;8.77;;;;;;;25.94;70.50;101510.31;4902050;29;21949;-64
2022/08/23 08:44:28;;;;;;;15.60;8.43;;;;;;;26.16;69.07;101513.25;4906280;29;20048;-62
2022/08/23 08:46:56;;;;;;;13.45;7.18;;;;;;;26.31;68.67;101518.16;4891001;29;20052;-62
2022/08/23 08:49:43;;;;;;;15.50;8.37;;;;;;;26.37;68.38;101509.16;4904136;29;20087;-62
2022/08/23 08:52:16;;;;;;;14.70;8.63;;;;;;;26.50;69.05;101514.28;4896022;29;20291;-61
2022/08/23 08:54:46;;;;;;;16.33;8.43;;;;;;;26.65;69.36;101516.50;4909413;29;20048;-62
2022/08/23 08:57:18;;;;;;;12.68;8.23;;;;;;;26.85;67.17;101515.28;4900675;29;20505;-61
2022/08/23 09:00:00;;;;;;;14.50;7.50;;;;;;;26.98;66.33;101520.41;4892997;29;20140;-62
2022/08/23 09:02:33;;;;;;;15.50;7.40;;;;;;;27.33;68.01;101516.78;4899785;29;20048;-64
2022/08/23 09:05:04;;;;;;;15.23;8.38;;;;;;;27.37;62.73;101515.25;4900277;29;20059;-63
2022/08/23 09:07:52;;;;;;;15.95;8.77;;;;;;;27.58;61.72;101519.94;4903655;28;20070;-62
2022/08/23 09:10:43;;;;;;;16.90;8.68;;;;;;;27.70;62.54;101525.25;4904909;29;20428;-63
2022/08/23 09:13:28;;;;;;;18.70;8.75;;;;;;;27.76;61.32;101523.47;4902038;29;20561;-61
2022/08/23 09:16:10;;;;;;;14.25;8.23;;;;;;;27.88;61.67;101523.41;4898134;29;20063;-64
2022/08/23 09:18:37;;;;;;;13.30;7.15;;;;;;;28.04;63.01;101519.06;4909468;29;20924;-62
2022/08/23 09:21:06;;;;;;;22.80;7.85;;;;;;;28.29;62.90;101515.94;4903420;29;20064;-62
2022/08/23 09:23:39;;;;;;;19.02;8.98;;;;;;;28.42;61.80;101517.44;4910734;29;20059;-63
2022/08/23 09:26:22;;;;;;;18.77;8.48;;;;;;;28.62;58.47;101519.63;4892895;29;20048;-62
2022/08/23 09:29:01;;;;;;;15.40;7.05;;;;;;;28.84;57.65;101509.66;4904722;29;20056;-63
2022/08/23 09:31:44;;;;;;;20.08;6.90;;;;;;;29.11;58.39;101517.78;4899512;29;20059;-63
2022/08/23 09:34:19;;;;;;;14.75;6.82;;;;;;;29.29;55.92;101519.34;4903944;29;20056;-63
2022/08/23 09:36:46;;;;;;;10.80;5.70;;;;;;;29.37;55.26;101518.88;4899013;29;20056;-63
2022/08/23 09:39:24;;;;;;;11.98;5.20;;;;;;;29.59;55.52;101509.88;4899475;29;20083;-63
2022/08/23 09:41:56;;;;;;;12.88;6.68;;;;;;;29.52;53.56;101506.56;4896286;29;20441;-63
2022/08/23 09:44:38;;;;;;;13.40;5.80;;;;;;;29.63;52.19;101510.19;4906391;29;20051;-63
2022/08/23 09:47:10;;;;;;;13.82;4.75;;;;;;;29.91;53.44;101504.50;4906421;29;20552;-62
2022/08/23 09:49:39;;;;;;;6.90;4.15;;;;;;;30.03;52.22;101506.16;4893383;29;20060;-63
2022/08/23 09:52:32;;;;;;;11.18;4.85;;;;;;;30.26;51.11;101511.19;4904558;29;20147;-63
2022/08/23 09:55:02;;;;;;;12.60;4.80;;;;;;;30.48;52.36;101507.53;4894737;29;20048;-63
2022/08/23 09:57:32;;;;;;;15.48;5.07;;;;;;;30.52;52.69;101505.94;4907318;29;20091;-62
2022/08/23 10:00:05;;;;;;;11.85;5.15;;;;;;;30.38;52.06;101507.50;4903209;29;20052;-62
2022/08/23 10:02:34;;;;;;;11.95;4.50;;;;;;;30.63;53.04;101506.78;4906885;29;20060;-61
2022/08/23 10:05:17;;;;;;;12.07;5.43;;;;;;;30.75;51.22;101505.50;4904256;29;20572;-64
2022/08/23 10:07:53;;;;;;;13.40;5.28;;;;;;;30.65;50.63;101508.16;4909822;29;20051;-62
2022/08/23 10:10:45;;;;;;;14.77;4.95;;;;;;;30.63;51.32;101496.78;4889212;29;20062;-61
2022/08/23 10:13:14;;;;;;;12.65;5.32;;;;;;;30.94;50.86;101496.91;4894034;29;20589;-62
2022/08/23 10:15:51;;;;;;;10.32;5.50;;;;;;;31.12;52.39;101495.59;4899438;29;20056;-63
2022/08/23 10:18:30;;;;;;;10.38;4.00;;;;;;;31.08;49.85;101498.00;4904110;29;20528;-63
2022/08/23 10:21:05;;;;;;;9.75;3.70;;;;;;;31.20;49.26;101495.06;4906803;29;20415;-63
2022/08/23 10:24:03;;;;;;;12.55;4.82;;;;;;;31.19;50.22;101501.56;4888205;29;20058;-63
2022/08/23 10:26:34;;;;;;;13.63;4.35;;;;;;;31.29;48.87;101489.94;4905121;29;20541;-61
2022/08/23 10:32:23;;;;;;;12.65;4.70;;;;;;;31.04;47.91;101494.22;4906571;29;20064;-62
2022/08/23 10:35:23;;;;;;;13.35;5.90;;;;;;;30.98;48.17;101484.47;4895549;29;20058;-64
2022/08/23 10:37:54;;;;;;;11.02;4.60;;;;;;;30.88;49.76;101493.34;4904345;29;20607;-62
2022/08/23 10:40:33;;;;;;;10.43;5.00;;;;;;;30.85;49.78;101483.03;4894360;29;20135;-62
2022/08/23 10:43:14;;;;;;;11.70;4.63;;;;;;;30.84;49.74;101486.03;4905985;29;20079;-62
2022/08/23 10:45:45;;;;;;;8.65;4.47;;;;;;;30.85;49.13;101485.72;4899435;29;20064;-62
2022/08/23 10:48:30;;;;;;;8.93;3.85;;;;;;;30.86;48.99;101483.88;4898447;29;20739;-64
2022/08/23 10:51:01;;;;;;;10.63;4.43;;;;;;;31.12;49.60;101482.84;4894534;29;20063;-62
2022/08/23 10:54:00;;;;;;;12.65;4.93;;;;;;;31.31;49.97;101485.84;4903217;29;20066;-62
2022/08/23 10:56:27;;;;;;;9.15;4.70;;;;;;;31.39;48.45;101481.00;4881427;29;20619;-63
2022/08/23 10:59:06;;;;;;;13.25;4.75;;;;;;;31.56;48.84;101476.16;4905381;29;20540;-63
2022/08/23 11:02:01;;;;;;;9.95;3.60;;;;;;;31.71;47.31;101473.41;4900680;29;20056;-61
2022/08/23 11:04:42;;;;;;;7.15;3.05;;;;;;;31.85;47.95;101472.84;4902743;29;20063;-63
2022/08/23 11:07:33;;;;;;;9.43;3.20;;;;;;;31.70;45.75;101479.13;4897628;29;20055;-62
2022/08/23 11:10:17;;;;;;;6.75;2.45;;;;;;;32.01;46.94;101488.06;4897791;29;20056;-63
2022/08/23 11:13:11;;;;;;;8.88;3.30;;;;;;;31.97;45.75;101477.97;4902765;29;20428;-63
2022/08/23 11:15:53;;;;;;;5.75;2.78;;;;;;;32.21;44.94;101476.31;4905931;29;20040;-62
2022/08/23 11:18:40;;;;;;;7.45;3.53;;;;;;;32.41;44.28;101471.91;4895407;29;20465;-62
2022/08/23 11:21:11;;;;;;;8.52;3.15;;;;;;;32.40;44.31;101481.97;4898705;29;20055;-63
2022/08/23 11:23:46;;;;;;;6.80;2.72;;;;;;;32.55;45.29;101472.13;4906393;29;20062;-63
2022/08/23 11:26:27;;;;;;;7.47;3.00;;;;;;;32.65;46.27;101482.94;4900165;29;20084;-63
2022/08/23 11:29:16;;;;;;;7.35;3.42;;;;;;;32.80;45.26;101473.91;4909381;29;20059;-64
2022/08/23 11:31:56;;;;;;;12.20;3.33;;;;;;;33.06;44.86;101482.72;4901889;29;20052;-62
2022/08/23 11:34:48;;;;;;;10.60;3.88;;;;;;;32.97;45.03;101478.97;4903322;29;20083;-62
2022/08/23 11:37:17;;;;;;;11.80;4.38;;;;;;;32.77;44.49;101475.28;4894260;29;20052;-61
2022/08/23 11:39:56;;;;;;;7.18;3.33;;;;;;;33.02;45.99;101477.03;4912217;29;20160;-61
2022/08/23 11:42:48;;;;;;;10.55;3.83;;;;;;;32.85;44.83;101465.72;4898839;29;20088;-62
2022/08/23 11:45:37;;;;;;;8.05;3.47;;;;;;;32.95;44.44;101476.56;4901649;29;20436;-62
2022/08/23 11:48:18;;;;;;;8.68;2.92;;;;;;;32.81;45.32;101461.94;4888983;29;20063;-62
2022/08/23 11:51:10;;;;;;;10.90;3.53;;;;;;;33.22;45.58;101476.09;4907002;29;20055;-62
2022/08/23 11:53:52;;;;;;;11.45;3.17;;;;;;;33.45;45.65;101476.47;4903284;29;20059;-62